Terminal Aerodrome Forecast
Issued by NWS

Home | Current Version | Previous Version | Text Only | Print | Product List | Glossary On
Versions: 1 2 3 4 5 6 7 8 9 10 11 12 13 14 15 16
000
FTUS43 KMPX 282300
TAFAXN
TAF
KAXN 282329Z 2900/2924 01007KT P6SM FEW100
     FM290500 02008KT P6SM BKN100
     FM291700 34011KT P6SM SKC=

USA.gov is the U.S. government's official web portal to all federal, state and local government web resources and services.